Time;durP1;ratioP1;P1;durP2;ratioP2;P2;SDS_P1;SDS_P2;PMS_P1;PMS_P2;Temp;Humidity;BMP_temperature;BMP_pressure;BME280_temperature;BME280_humidity;BME280_pressure;Samples;Min_cycle;Max_cycle;Signal;HPM_P1;HPM_P2
2023/04/29 00:01:18;;;;;;;59.47;30.63;;;;;;;;;;6215226;23;20051;-84
2023/04/29 00:04:02;;;;;;;58.97;29.15;;;;;;;;;;6191940;23;20020;-84
2023/04/29 00:06:47;;;;;;;56.50;29.17;;;;;;;;;;6192500;23;20517;-84
2023/04/29 00:09:32;;;;;;;71.20;29.50;;;;;;;;;;6215026;23;20051;-83
2023/04/29 00:12:17;;;;;;;59.40;28.60;;;;;;;;;;6192442;23;20047;-83
2023/04/29 00:15:01;;;;;;;54.40;29.90;;;;;;;;;;6214271;23;20120;-83
2023/04/29 00:17:46;;;;;;;53.65;28.25;;;;;;;;;;6214995;23;20091;-84
2023/04/29 00:20:31;;;;;;;59.05;28.92;;;;;;;;;;6214824;23;20066;-83
2023/04/29 00:23:16;;;;;;;58.33;28.27;;;;;;;;;;6214548;23;20024;-83
2023/04/29 00:26:00;;;;;;;48.13;28.15;;;;;;;;;;6214102;23;20024;-85
2023/04/29 00:28:45;;;;;;;55.47;27.55;;;;;;;;;;6214591;23;20020;-83
2023/04/29 00:31:31;;;;;;;57.17;28.65;;;;;;;;;;6214812;23;20032;-84
2023/04/29 00:34:16;;;;;;;62.88;29.30;;;;;;;;;;6171385;23;20446;-84
2023/04/29 00:37:01;;;;;;;67.13;29.20;;;;;;;;;;6213978;23;20055;-84
2023/04/29 00:39:45;;;;;;;50.88;27.40;;;;;;;;;;6192136;23;20019;-84
2023/04/29 00:42:32;;;;;;;47.63;26.15;;;;;;;;;;6171131;23;20083;-84
2023/04/29 00:45:17;;;;;;;52.08;28.13;;;;;;;;;;6191427;23;20470;-84
2023/04/29 00:48:02;;;;;;;49.85;28.30;;;;;;;;;;6191407;23;20071;-85
2023/04/29 00:50:46;;;;;;;53.05;26.52;;;;;;;;;;6214655;23;20051;-85
2023/04/29 00:53:31;;;;;;;56.58;28.25;;;;;;;;;;6214492;23;20458;-84
2023/04/29 00:56:16;;;;;;;67.32;30.77;;;;;;;;;;6213840;23;20576;-84
2023/04/29 00:59:02;;;;;;;59.47;28.65;;;;;;;;;;6170538;23;20451;-83
2023/04/29 01:01:47;;;;;;;57.28;29.02;;;;;;;;;;6214260;23;20111;-83
2023/04/29 01:04:31;;;;;;;59.15;28.17;;;;;;;;;;6214476;23;20011;-83
2023/04/29 01:07:16;;;;;;;69.72;30.15;;;;;;;;;;6213490;23;20552;-84
2023/04/29 01:10:10;;;;;;;60.33;29.00;;;;;;;;;;6213755;23;20016;-84
2023/04/29 01:13:00;;;;;;;57.53;28.15;;;;;;;;;;6214388;23;20058;-84
2023/04/29 01:15:48;;;;;;;60.03;28.75;;;;;;;;;;6213190;23;20019;-84
2023/04/29 01:18:42;;;;;;;54.50;25.85;;;;;;;;;;6214345;23;20016;-84
2023/04/29 01:21:27;;;;;;;51.78;26.63;;;;;;;;;;6191753;23;20088;-85
2023/04/29 01:24:11;;;;;;;61.05;25.98;;;;;;;;;;6191300;23;20019;-84
2023/04/29 01:26:58;;;;;;;52.13;26.13;;;;;;;;;;6191775;23;20075;-83
2023/04/29 01:29:51;;;;;;;49.50;26.55;;;;;;;;;;6214288;23;20417;-83
2023/04/29 01:33:24;;;;;;;46.75;24.73;;;9.30;99.90;;;;;;6214113;23;20490;-84
2023/04/29 01:36:15;;;;;;;47.25;22.75;;;;;;;;;;6121860;23;20027;-84
2023/04/29 01:39:13;;;;;;;46.33;23.98;;;9.30;99.90;;;;;;6213955;23;20027;-87
2023/04/29 01:42:42;;;;;;;56.78;25.40;;;9.30;99.90;;;;;;6191450;23;20126;-84
2023/04/29 01:45:27;;;;;;;42.90;23.02;;;;;;;;;;6198057;23;20434;-86
2023/04/29 01:48:13;;;;;;;44.45;23.98;;;;;;;;;;6190876;23;20011;-83
2023/04/29 01:50:57;;;;;;;38.88;21.08;;;;;;;;;;6191685;23;20039;-84
2023/04/29 01:53:42;;;;;;;42.67;22.35;;;;;;;;;;6213967;23;20015;-84
2023/04/29 01:56:27;;;;;;;40.58;20.70;;;;;;;;;;6213275;23;20082;-84
2023/04/29 01:59:11;;;;;;;39.80;21.10;;;;;;;;;;6213247;23;20019;-85
2023/04/29 02:01:57;;;;;;;39.20;19.10;;;;;;;;;;6214091;23;20393;-84
2023/04/29 02:04:42;;;;;;;37.40;19.20;;;;;;;;;;6191225;23;20096;-85
2023/04/29 02:07:27;;;;;;;40.25;20.25;;;;;;;;;;6213283;23;20055;-83
2023/04/29 02:10:11;;;;;;;41.70;18.77;;;;;;;;;;6190735;23;20019;-84
2023/04/29 02:12:56;;;;;;;33.95;19.90;;;;;;;;;;6191306;23;20019;-84
2023/04/29 02:15:40;;;;;;;37.47;18.90;;;;;;;;;;6213790;23;20067;-83
2023/04/29 02:18:25;;;;;;;32.25;19.73;;;;;;;;;;6169887;23;20099;-84
2023/04/29 02:21:11;;;;;;;33.85;18.63;;;;;;;;;;6169570;23;20052;-84
2023/04/29 02:23:55;;;;;;;37.60;18.73;;;;;;;;;;6213670;23;20015;-84
2023/04/29 02:26:40;;;;;;;38.17;18.48;;;;;;;;;;6213556;23;20023;-84
2023/04/29 02:29:26;;;;;;;42.38;19.92;;;;;;;;;;6213064;23;20016;-84
2023/04/29 02:32:13;;;;;;;36.42;19.35;;;;;;;;;;6190474;23;20035;-84
2023/04/29 02:34:57;;;;;;;35.17;18.60;;;;;;;;;;6213461;23;20075;-84
2023/04/29 02:37:42;;;;;;;37.95;20.27;;;;;;;;;;6213731;23;20043;-85
2023/04/29 02:40:27;;;;;;;34.35;19.52;;;;;;;;;;6213036;23;20094;-84
2023/04/29 02:43:12;;;;;;;36.88;19.23;;;;;;;;;;6169896;23;20106;-84
2023/04/29 02:45:57;;;;;;;39.85;20.13;;;;;;;;;;6213629;23;20024;-83
2023/04/29 02:48:42;;;;;;;37.75;19.77;;;;;;;;;;6169955;23;20020;-84
2023/04/29 02:51:27;;;;;;;33.33;18.67;;;;;;;;;;6190491;23;20344;-84
2023/04/29 02:54:12;;;;;;;37.53;20.80;;;;;;;;;;6212993;23;20012;-88
2023/04/29 02:56:57;;;;;;;35.97;19.60;;;;;;;;;;6191145;23;20024;-83
2023/04/29 02:59:41;;;;;;;36.42;19.65;;;;;;;;;;6213545;23;20095;-84
2023/04/29 03:02:26;;;;;;;41.55;21.00;;;;;;;;;;6212883;23;20384;-83
2023/04/29 03:05:11;;;;;;;47.08;21.50;;;;;;;;;;6213731;23;20016;-84
2023/04/29 03:07:55;;;;;;;39.00;19.20;;;;;;;;;;6190926;23;20020;-85
2023/04/29 03:10:40;;;;;;;39.83;19.75;;;;;;;;;;6213436;23;20066;-86
2023/04/29 03:13:25;;;;;;;45.40;20.33;;;;;;;;;;6212912;23;20062;-84
2023/04/29 03:16:09;;;;;;;40.92;20.20;;;;;;;;;;6190818;23;20462;-84
2023/04/29 03:18:54;;;;;;;39.63;21.50;;;;;;;;;;6213574;23;20104;-85
2023/04/29 03:21:39;;;;;;;39.83;21.15;;;;;;;;;;6213091;23;20016;-84
2023/04/29 03:24:23;;;;;;;42.00;21.08;;;;;;;;;;6190293;23;20075;-84
2023/04/29 03:27:08;;;;;;;43.78;22.15;;;;;;;;;;6190755;23;20473;-84
2023/04/29 03:29:53;;;;;;;48.42;22.08;;;;;;;;;;6170077;23;20019;-84
2023/04/29 03:32:37;;;;;;;42.55;22.05;;;;;;;;;;6170880;23;20018;-84
2023/04/29 03:35:22;;;;;;;38.97;20.10;;;;;;;;;;6214512;23;20102;-84
2023/04/29 03:38:06;;;;;;;45.78;22.55;;;;;;;;;;6192866;23;20019;-84
2023/04/29 03:40:51;;;;;;;40.28;22.48;;;;;;;;;;6192728;23;20059;-84
2023/04/29 03:43:36;;;;;;;40.78;21.25;;;;;;;;;;6214547;23;20512;-85
2023/04/29 03:46:20;;;;;;;39.28;20.85;;;;;;;;;;6214659;23;20020;-84
2023/04/29 03:49:05;;;;;;;42.03;22.50;;;;;;;;;;6215206;23;20062;-83
2023/04/29 03:51:49;;;;;;;44.00;21.75;;;;;;;;;;6192705;23;20016;-84
2023/04/29 03:54:34;;;;;;;50.38;23.17;;;;;;;;;;6192196;23;20015;-84
2023/04/29 03:57:18;;;;;;;45.13;22.45;;;;;;;;;;6192224;23;20024;-85
2023/04/29 04:00:03;;;;;;;45.30;21.98;;;;;;;;;;6215121;23;20054;-84
2023/04/29 04:02:47;;;;;;;47.33;23.35;;;;;;;;;;6214863;23;20507;-84
2023/04/29 04:05:32;;;;;;;44.72;21.30;;;;;;;;;;6214374;23;20027;-84
2023/04/29 04:08:16;;;;;;;40.90;21.88;;;;;;;;;;6192477;23;20024;-84
2023/04/29 04:11:04;;;;;;;46.78;23.08;;;;;;;;;;6192324;23;20019;-84
2023/04/29 04:13:49;;;;;;;45.03;22.25;;;;;;;;;;6213952;23;20067;-84
2023/04/29 04:16:33;;;;;;;46.67;21.05;;;;;;;;;;6214265;23;20482;-84
2023/04/29 04:19:18;;;;;;;40.63;21.08;;;;;;;;;;6192271;23;20020;-84
2023/04/29 04:22:06;;;;;;;40.75;20.48;;;;;;;;;;6192540;23;20173;-84
2023/04/29 04:24:51;;;;;;;41.92;20.33;;;;;;;;;;6192234;23;20012;-83
2023/04/29 04:27:35;;;;;;;46.70;22.02;;;;;;;;;;6214270;23;20367;-84
2023/04/29 04:30:20;;;;;;;39.53;18.98;;;;;;;;;;6192370;23;20136;-84
2023/04/29 04:33:04;;;;;;;37.38;18.10;;;;;;;;;;6192255;23;20015;-83
2023/04/29 04:35:49;;;;;;;37.58;16.73;;;;;;;;;;6214333;23;20469;-84
2023/04/29 04:38:34;;;;;;;37.58;18.55;;;;;;;;;;6191509;23;20055;-84
2023/04/29 04:41:18;;;;;;;44.72;18.23;;;;;;;;;;6214549;23;20497;-84
2023/04/29 04:44:03;;;;;;;36.67;16.88;;;;;;;;;;6214524;23;20031;-84
2023/04/29 04:46:49;;;;;;;34.67;17.00;;;;;;;;;;6191477;23;20020;-84
2023/04/29 04:49:33;;;;;;;31.30;16.35;;;;;;;;;;6191449;23;20104;-84
2023/04/29 04:52:21;;;;;;;38.55;17.73;;;;;;;;;;6214632;23;20026;-84
2023/04/29 04:55:06;;;;;;;27.83;15.55;;;;;;;;;;6191802;23;20047;-83
2023/04/29 04:57:51;;;;;;;39.90;16.77;;;;;;;;;;6213950;23;20011;-84
2023/04/29 05:00:36;;;;;;;30.35;15.70;;;;;;;;;;6213777;23;20011;-84
2023/04/29 05:03:20;;;;;;;30.90;14.52;;;;;;;;;;6214451;23;20020;-85
2023/04/29 05:06:05;;;;;;;32.97;14.52;;;;;;;;;;6191989;23;20403;-85
2023/04/29 05:08:50;;;;;;;29.55;16.05;;;;;;;;;;6213785;23;20055;-85
2023/04/29 05:11:34;;;;;;;34.13;15.35;;;;;;;;;;6213727;23;20020;-84
2023/04/29 05:14:18;;;;;;;35.80;15.15;;;;;;;;;;6191785;23;20139;-84
2023/04/29 05:17:03;;;;;;;29.92;14.88;;;;;;;;;;6214276;23;20467;-84
2023/04/29 05:19:47;;;;;;;41.60;17.75;;;;;;;;;;6213438;23;20114;-84
2023/04/29 05:22:32;;;;;;;28.08;14.40;;;;;;;;;;6189288;23;20016;-86
2023/04/29 05:25:17;;;;;;;34.65;16.10;;;;;;;;;;6168156;23;20458;-86
2023/04/29 05:28:03;;;;;;;35.33;15.40;;;;;;;;;;6212160;23;20470;-85
2023/04/29 05:30:50;;;;;;;28.13;14.48;;;;;;;;;;6211483;23;20019;-85
2023/04/29 05:33:35;;;;;;;40.58;15.32;;;;;;;;;;6211385;23;20063;-85
2023/04/29 05:36:20;;;;;;;33.50;15.32;;;;;;;;;;6211831;23;20108;-84
2023/04/29 05:39:04;;;;;;;26.05;14.98;;;;;;;;;;6170127;23;20438;-85
2023/04/29 05:41:49;;;;;;;26.42;13.98;;;;;;;;;;6190595;23;20070;-84
2023/04/29 05:44:33;;;;;;;28.13;13.75;;;;;;;;;;6213854;23;20015;-87
2023/04/29 05:47:18;;;;;;;34.33;16.52;;;;;;;;;;6191484;23;20023;-85
2023/04/29 05:50:02;;;;;;;30.25;14.15;;;;;;;;;;6214129;23;20035;-85
2023/04/29 05:52:47;;;;;;;25.50;13.50;;;;;;;;;;6190146;23;20119;-86
2023/04/29 05:55:31;;;;;;;34.85;15.10;;;;;;;;;;6170642;23;20024;-85
2023/04/29 05:58:16;;;;;;;24.27;14.10;;;;;;;;;;6192203;23;20458;-85
2023/04/29 06:01:01;;;;;;;26.80;13.13;;;;;;;;;;6191895;23;20483;-84
2023/04/29 06:03:46;;;;;;;26.83;12.68;;;;;;;;;;6190961;23;20016;-88
2023/04/29 06:06:31;;;;;;;25.92;13.00;;;;;;;;;;6170927;23;20485;-85
2023/04/29 06:09:16;;;;;;;27.40;12.90;;;;;;;;;;6214049;23;20015;-85
2023/04/29 06:12:01;;;;;;;18.75;11.35;;;;;;;;;;6213737;23;20051;-85
2023/04/29 06:14:46;;;;;;;19.52;11.15;;;;;;;;;;6190707;23;20012;-86
2023/04/29 06:17:31;;;;;;;19.40;10.60;;;;;;;;;;6214045;23;20100;-84
2023/04/29 06:20:15;;;;;;;19.38;10.95;;;;;;;;;;6214098;23;20015;-85
2023/04/29 06:23:00;;;;;;;22.08;11.05;;;;;;;;;;6214540;23;20016;-85
2023/04/29 06:25:45;;;;;;;19.15;10.60;;;;;;;;;;6213205;23;20143;-83
2023/04/29 06:28:29;;;;;;;21.98;10.05;;;;;;;;;;6191004;23;20024;-84
2023/04/29 06:31:15;;;;;;;20.02;10.02;;;;;;;;;;6191521;23;20066;-84
2023/04/29 06:33:59;;;;;;;20.08;10.23;;;;;;;;;;6213080;23;20059;-85
2023/04/29 06:36:43;;;;;;;16.38;9.63;;;;;;;;;;6212449;23;20023;-83
2023/04/29 06:39:28;;;;;;;15.15;9.68;;;;;;;;;;6190824;23;20020;-84
2023/04/29 06:42:13;;;;;;;15.82;9.93;;;;;;;;;;6213084;23;20027;-84
2023/04/29 06:44:58;;;;;;;22.02;9.85;;;;;;;;;;6189873;23;20459;-84
2023/04/29 06:47:43;;;;;;;18.38;9.05;;;;;;;;;;6190298;23;20058;-88
2023/04/29 06:50:28;;;;;;;19.02;10.02;;;;;;;;;;6191026;23;20038;-85
2023/04/29 06:53:12;;;;;;;18.55;9.40;;;;;;;;;;6213722;23;20055;-87
2023/04/29 06:55:57;;;;;;;18.67;9.02;;;;;;;;;;6212352;23;20023;-87
2023/04/29 06:58:41;;;;;;;12.10;8.68;;;;;;;;;;6213641;23;20071;-89
2023/04/29 07:01:26;;;;;;;14.75;9.05;;;;;;;;;;6170203;23;20066;-89
2023/04/29 07:04:11;;;;;;;16.45;8.80;;;;;;;;;;6191058;23;20015;-90
2023/04/29 07:06:57;;;;;;;12.85;8.48;;;;;;;;;;6214183;23;20343;-90
2023/04/29 07:09:42;;;;;;;13.18;8.60;;;;;;;;;;6215561;23;20462;-89
2023/04/29 07:12:26;;;;;;;14.05;8.18;;;;;;;;;;6215507;23;20347;-90
2023/04/29 07:15:11;;;;;;;15.90;7.80;;;;;;;;;;6192870;23;20016;-89
2023/04/29 07:17:56;;;;;;;13.60;7.97;;;;;;;;;;6192568;23;20020;-87
2023/04/29 07:20:41;;;;;;;14.15;8.60;;;;;;;;;;6214852;23;20015;-88
2023/04/29 07:23:25;;;;;;;13.88;8.52;;;;;;;;;;6191282;23;20083;-87
2023/04/29 07:26:17;;;;;;;14.02;7.60;;;;;;;;;;6170150;23;20023;-88
2023/04/29 07:29:02;;;;;;;13.68;7.45;;;;;;;;;;6214645;23;20343;-88
2023/04/29 07:31:47;;;;;;;16.33;7.05;;;;;;;;;;6192564;23;20059;-88
2023/04/29 07:34:31;;;;;;;14.88;8.48;;;;;;;;;;6192961;23;20436;-86
2023/04/29 07:37:16;;;;;;;12.48;8.27;;;;;;;;;;6215293;23;20043;-88
2023/04/29 07:40:01;;;;;;;16.65;7.80;;;;;;;;;;6192280;23;20020;-87
2023/04/29 07:42:45;;;;;;;15.23;7.28;;;;;;;;;;6192759;23;20019;-86
2023/04/29 07:45:30;;;;;;;15.35;7.90;;;;;;;;;;6215397;23;20020;-86
2023/04/29 07:48:14;;;;;;;13.15;7.25;;;;;;;;;;6215403;23;20012;-86
2023/04/29 07:50:59;;;;;;;12.75;6.65;;;;;;;;;;6215103;23;20035;-87
2023/04/29 07:53:43;;;;;;;16.05;7.88;;;;;;;;;;6193412;23;20384;-86
2023/04/29 07:56:28;;;;;;;11.20;7.07;;;;;;;;;;6192944;23;20351;-86
2023/04/29 07:59:12;;;;;;;12.90;7.65;;;;;;;;;;6192361;23;20485;-85
2023/04/29 08:01:59;;;;;;;10.77;7.25;;;;;;;;;;6214697;23;20058;-85
2023/04/29 08:04:44;;;;;;;12.35;7.10;;;;;;;;;;6171931;23;20019;-87
2023/04/29 08:07:29;;;;;;;13.00;6.65;;;;;;;;;;6171607;23;20023;-87
2023/04/29 08:10:17;;;;;;;11.57;6.20;;;;;;;;;;6192469;23;20054;-85
2023/04/29 08:13:02;;;;;;;9.43;5.93;;;;;;;;;;6215197;23;20063;-85
2023/04/29 08:15:47;;;;;;;13.25;6.60;;;;;;;;;;6192925;23;20023;-86
2023/04/29 08:18:31;;;;;;;12.80;6.70;;;;;;;;;;6191553;23;20016;-85
2023/04/29 08:21:16;;;;;;;10.63;7.00;;;;;;;;;;6212878;23;20024;-89
2023/04/29 08:24:01;;;;;;;12.20;7.60;;;;;;;;;;6190916;23;20019;-86
2023/04/29 08:26:46;;;;;;;11.30;6.03;;;;;;;;;;6190748;23;20110;-86
2023/04/29 08:29:31;;;;;;;13.30;6.25;;;;;;;;;;6212263;23;20019;-87
2023/04/29 08:32:16;;;;;;;10.70;6.35;;;;;;;;;;6213920;23;20527;-88
2023/04/29 08:35:01;;;;;;;11.13;5.38;;;;;;;;;;6214294;23;20019;-86
2023/04/29 08:37:46;;;;;;;9.27;5.78;;;;;;;;;;6191794;23;20058;-87
2023/04/29 08:40:34;;;;;;;12.48;6.05;;;;;;;;;;6194424;23;20074;-87
2023/04/29 08:43:20;;;;;;;11.27;5.75;;;;;;;;;;6190609;23;20024;-86
2023/04/29 08:46:04;;;;;;;11.45;5.32;;;;;;;;;;6214146;23;20063;-85
2023/04/29 08:48:49;;;;;;;10.50;5.20;;;;;;;;;;6171313;23;20379;-86
2023/04/29 08:51:34;;;;;;;12.65;5.45;;;;;;;;;;6192144;23;20096;-85
2023/04/29 08:54:19;;;;;;;12.10;5.35;;;;;;;;;;6191281;23;20063;-87
2023/04/29 08:57:05;;;;;;;9.32;5.13;;;;;;;;;;6212431;23;20024;-90
2023/04/29 08:59:49;;;;;;;9.68;4.63;;;;;;;;;;6214396;23;20012;-87
2023/04/29 09:02:38;;;;;;;10.98;5.53;;;;;;;;;;6192045;23;20111;-88
2023/04/29 09:05:24;;;;;;;12.93;5.32;;;;;;;;;;6190416;23;20428;-89
2023/04/29 09:08:09;;;;;;;9.60;5.15;;;;;;;;;;6213734;23;20015;-85
2023/04/29 09:10:54;;;;;;;10.13;5.00;;;;;;;;;;6214663;23;20016;-86
2023/04/29 09:13:39;;;;;;;14.93;5.72;;;;;;;;;;6214912;23;20055;-87
2023/04/29 09:16:23;;;;;;;11.75;5.57;;;;;;;;;;6191753;23;20019;-88
2023/04/29 09:19:07;;;;;;;11.57;6.82;;;;;;;;;;6191743;23;20131;-86
2023/04/29 09:21:55;;;;;;;10.25;6.15;;;;;;;;;;6192126;23;20078;-86
2023/04/29 09:24:42;;;;;;;10.70;6.05;;;;;;;;;;6192315;23;20015;-85
2023/04/29 09:27:30;;;;;;;11.10;5.72;;;;;;;;;;6214175;23;20023;-86
2023/04/29 09:30:15;;;;;;;7.93;5.30;;;;;;;;;;6191193;23;20016;-86
2023/04/29 09:33:04;;;;;;;13.23;6.45;;;;;;;;;;6192265;23;20138;-87
2023/04/29 09:35:48;;;;;;;12.80;6.03;;;;;;;;;;6214416;23;20023;-86
2023/04/29 09:38:33;;;;;;;10.80;4.80;;;;;;;;;;6192210;23;20015;-86
2023/04/29 09:41:18;;;;;;;10.00;5.15;;;;;;;;;;6214307;23;20122;-86
2023/04/29 09:44:06;;;;;;;10.93;5.97;;;;;;;;;;6183326;23;20032;-86
2023/04/29 09:47:02;;;;;;;11.02;5.72;;;;;;;;;;6183186;23;20024;-86
2023/04/29 09:49:48;;;;;;;10.50;5.65;;;;;;;;;;6183377;23;20015;-86
2023/04/29 09:52:41;;;;;;;11.13;5.80;;;;;;;;;;6183174;23;20096;-86
2023/04/29 09:55:26;;;;;;;8.60;5.05;;;;;;;;;;6184529;23;20069;-86
2023/04/29 09:58:26;;;;;;;8.95;5.55;;;;;;;;;;6184891;23;20337;-85
2023/04/29 10:01:13;;;;;;;9.40;5.15;;;;;;;;;;6185409;23;20391;-87
2023/04/29 10:03:58;;;;;;;9.68;5.07;;;;;;;;;;6183636;23;20020;-88
2023/04/29 10:06:44;;;;;;;8.65;4.63;;;;;;;;;;6183356;23;20071;-87
2023/04/29 10:09:29;;;;;;;8.27;4.45;;;;;;;;;;6183677;23;20091;-88
2023/04/29 10:12:17;;;;;;;7.95;4.38;;;;;;;;;;6183605;23;20012;-88
2023/04/29 10:15:03;;;;;;;8.70;4.60;;;;;;;;;;6182726;23;20446;-87
2023/04/29 10:17:48;;;;;;;8.77;4.32;;;;;;;;;;6182743;23;20441;-88
2023/04/29 10:20:33;;;;;;;14.25;5.20;;;;;;;;;;6183564;23;20016;-88
2023/04/29 10:23:19;;;;;;;16.67;4.72;;;;;;;;;;6182189;23;20020;-87
2023/04/29 10:26:05;;;;;;;9.75;3.97;;;;;;;;;;6184109;23;20020;-87
2023/04/29 10:28:50;;;;;;;10.27;4.57;;;;;;;;;;6183465;23;20012;-88
2023/04/29 10:31:36;;;;;;;13.90;5.15;;;;;;;;;;6183429;23;20067;-87
2023/04/29 10:34:21;;;;;;;9.40;4.88;;;;;;;;;;6183027;23;20012;-88
2023/04/29 10:37:08;;;;;;;10.90;5.55;;;;;;;;;;6183625;23;20024;-87
2023/04/29 10:40:02;;;;;;;9.73;4.60;;;;;;;;;;6182779;23;20109;-89
2023/04/29 10:42:51;;;;;;;10.02;4.90;;;;;;;;;;6181842;23;20060;-90
2023/04/29 10:45:37;;;;;;;7.60;4.63;;;;;;;;;;6182227;23;20427;-87
2023/04/29 10:48:24;;;;;;;9.27;4.85;;;;;;;;;;6181331;23;20020;-89
2023/04/29 10:51:09;;;;;;;7.03;4.50;;;;;;;;;;6183462;23;20438;-88
2023/04/29 10:54:01;;;;;;;8.85;4.10;;;;;;;;;;6182708;23;20340;-88
2023/04/29 10:56:49;;;;;;;9.05;3.92;;;;;;;;;;6183584;23;20024;-87
2023/04/29 10:59:35;;;;;;;7.70;4.22;;;;;;;;;;6182861;23;20020;-87
2023/04/29 11:02:19;;;;;;;11.45;4.38;;;;;;;;;;6181863;23;20059;-88
2023/04/29 11:05:08;;;;;;;9.38;3.75;;;;;;;;;;6182853;23;20071;-90
2023/04/29 11:08:08;;;;;;;7.38;3.17;;;;;;;;;;6183011;23;20036;-88
2023/04/29 11:10:56;;;;;;;6.38;2.90;;;;;;;;;;6182240;23;20027;-89
2023/04/29 11:13:46;;;;;;;6.32;2.40;;;;;;;;;;6162199;23;20020;-89
2023/04/29 11:16:30;;;;;;;8.13;3.30;;;;;;;;;;6181805;23;20101;-88
2023/04/29 11:19:16;;;;;;;8.75;4.28;;;;;;;;;;6184110;23;20033;-88
2023/04/29 11:22:12;;;;;;;6.70;3.72;;;;;;;;;;6182926;23;20063;-89
2023/04/29 11:24:59;;;;;;;9.57;3.50;;;;;;;;;;6182700;23;20032;-92
2023/04/29 11:27:47;;;;;;;6.78;4.53;;;;;;;;;;6182012;23;20072;-87
2023/04/29 11:30:32;;;;;;;9.95;4.47;;;;;;;;;;6181261;23;20020;-87
2023/04/29 11:33:19;;;;;;;10.85;4.95;;;;;;;;;;6183402;23;20020;-87
2023/04/29 11:36:03;;;;;;;8.63;4.93;;;;;;;;;;6181881;23;20071;-87
2023/04/29 11:38:48;;;;;;;8.55;4.70;;;;;;;;;;6182060;23;20023;-87
2023/04/29 11:41:34;;;;;;;6.25;3.53;;;;;;;;;;6181540;23;20015;-87
2023/04/29 11:44:22;;;;;;;6.40;4.40;;;;;;;;;;6161642;23;20028;-89
2023/04/29 11:47:07;;;;;;;7.13;3.15;;;;;;;;;;6182124;23;20041;-89
2023/04/29 11:49:52;;;;;;;5.85;3.08;;;;;;;;;;6183246;23;20020;-88
2023/04/29 11:52:38;;;;;;;4.35;2.40;;;;;;;;;;6161280;23;20105;-89
2023/04/29 11:55:22;;;;;;;6.45;2.30;;;;;;;;;;6183634;23;20012;-88
2023/04/29 11:58:07;;;;;;;5.38;2.20;;;;;;;;;;6183176;23;20502;-88
2023/04/29 12:00:52;;;;;;;3.88;1.83;;;;;;;;;;6184868;23;20090;-89
2023/04/29 12:03:36;;;;;;;4.25;2.25;;;;;;;;;;6183179;23;20020;-90
2023/04/29 12:06:21;;;;;;;6.10;2.40;;;;;;;;;;6183761;23;20019;-89
2023/04/29 12:09:06;;;;;;;5.40;2.80;;;;;;;;;;6183674;23;20405;-89
2023/04/29 12:11:50;;;;;;;8.40;2.38;;;;;;;;;;6162441;23;20051;-90
2023/04/29 12:14:36;;;;;;;4.50;2.15;;;;;;;;;;6162122;23;20060;-88
2023/04/29 12:17:21;;;;;;;5.35;2.50;;;;;;;;;;6184729;23;20099;-88
2023/04/29 12:20:08;;;;;;;15.23;3.83;;;;;;;;;;6184797;23;20384;-90
2023/04/29 12:22:53;;;;;;;11.18;3.90;;;;;;;;;;6162901;23;20459;-89
2023/04/29 12:25:37;;;;;;;6.72;2.55;;;;;;;;;;6182954;23;20454;-88
2023/04/29 12:28:22;;;;;;;5.47;3.13;;;;;;;;;;6162625;23;20136;-89
2023/04/29 12:31:10;;;;;;;5.68;3.50;;;18.50;84.00;;;;;;6184834;23;20012;-87
2023/04/29 12:33:56;;;;;;;6.07;2.35;;;;;;;;;;6162632;23;20016;-89
2023/04/29 12:36:44;;;;;;;7.03;2.63;;;;;;;;;;6182644;23;20020;-88
2023/04/29 12:39:29;;;;;;;6.80;2.30;;;;;;;;;;6183127;23;20687;-91
2023/04/29 12:42:15;;;;;;;4.05;2.20;;;18.50;83.60;;;;;;6190620;23;20027;-87
2023/04/29 12:45:00;;;;;;;4.97;2.08;;;;;;;;;;6214783;23;20396;-88
2023/04/29 12:47:45;;;;;;;7.50;2.35;;;;;;;;;;6214063;23;20501;-93
2023/04/29 12:50:34;;;;;;;5.15;2.15;;;;;;;;;;6214385;23;20024;-90
2023/04/29 12:53:19;;;;;;;8.23;2.60;;;;;;;;;;6214410;23;20100;-87
2023/04/29 12:56:04;;;;;;;5.18;2.10;;;;;;;;;;6214073;23;20087;-89
2023/04/29 12:58:49;;;;;;;9.07;2.30;;;;;;;;;;6189545;23;20028;-88
2023/04/29 13:01:33;;;;;;;4.85;2.20;;;;;;;;;;6170377;23;20015;-88
2023/04/29 13:04:18;;;;;;;6.03;2.40;;;;;;;;;;6214063;23;20014;-87
2023/04/29 13:07:03;;;;;;;4.57;2.72;;;;;;;;;;6192305;23;20016;-95
2023/04/29 13:09:48;;;;;;;8.52;2.53;;;;;;;;;;6213786;23;20067;-90
2023/04/29 13:12:33;;;;;;;4.40;1.98;;;;;;;;;;6191724;23;20020;-89
2023/04/29 13:15:17;;;;;;;4.78;1.90;;;;;;;;;;6170985;23;20031;-90
2023/04/29 13:18:02;;;;;;;5.90;3.20;;;;;;;;;;6191732;23;20016;-90
2023/04/29 13:20:46;;;;;;;4.88;1.40;;;;;;;;;;6213736;23;20023;-90
2023/04/29 13:23:31;;;;;;;5.07;1.55;;;;;;;;;;6214187;23;20051;-89
2023/04/29 13:26:17;;;;;;;3.20;1.42;;;;;;;;;;6218821;23;20023;-90
2023/04/29 13:29:01;;;;;;;5.60;2.40;;;;;;;;;;6194269;23;20040;-90
2023/04/29 13:31:46;;;;;;;6.90;1.75;;;;;;;;;;6170311;23;20391;-87
2023/04/29 13:34:31;;;;;;;3.60;1.70;;;;;;;;;;6214251;23;20019;-86
2023/04/29 13:37:16;;;;;;;4.07;1.40;;;;;;;;;;6191663;23;20067;-87
2023/04/29 13:40:00;;;;;;;2.50;1.42;;;;;;;;;;6214119;23;20319;-87
2023/04/29 13:42:45;;;;;;;4.15;1.70;;;;;;;;;;6191142;23;20067;-87
2023/04/29 13:45:30;;;;;;;3.75;1.52;;;;;;;;;;6191540;23;20015;-86
2023/04/29 13:48:15;;;;;;;2.63;1.33;;;;;;;;;;6192157;23;20394;-86
2023/04/29 13:50:59;;;;;;;3.20;1.50;;;;;;;;;;6213393;23;20058;-88
2023/04/29 13:53:44;;;;;;;3.63;1.60;;;;;;;;;;6170027;23;20027;-86
2023/04/29 13:56:29;;;;;;;3.03;1.60;;;;;;;;;;6213932;23;20019;-88
2023/04/29 13:59:13;;;;;;;4.60;1.70;;;;;;;;;;6191434;23;20467;-87
2023/04/29 14:01:58;;;;;;;5.78;1.90;;;;;;;;;;6190955;23;20031;-86
2023/04/29 14:04:43;;;;;;;5.43;1.90;;;;;;;;;;6213419;23;20096;-87
2023/04/29 14:07:27;;;;;;;5.85;1.70;;;;;;;;;;6213869;23;20068;-87
2023/04/29 14:10:12;;;;;;;4.18;1.75;;;;;;;;;;6213860;23;20047;-85
2023/04/29 14:12:57;;;;;;;4.72;2.10;;;;;;;;;;6213141;23;20059;-87
2023/04/29 14:15:41;;;;;;;4.88;2.30;;;;;;;;;;6213017;23;20027;-89
2023/04/29 14:18:26;;;;;;;4.88;2.40;;;;;;;;;;6213913;23;20015;-86
2023/04/29 14:21:11;;;;;;;3.95;2.35;;;;;;;;;;6213667;23;20090;-87
2023/04/29 14:23:56;;;;;;;5.53;2.70;;;;;;;;;;6213089;23;20015;-86
2023/04/29 14:26:41;;;;;;;5.53;3.30;;;;;;;;;;6190972;23;20204;-88
2023/04/29 14:29:25;;;;;;;7.85;3.95;;;;;;;;;;6191203;23;20054;-88
2023/04/29 14:32:10;;;;;;;11.15;4.13;;;;;;;;;;6191221;23;20047;-88
2023/04/29 14:34:54;;;;;;;12.82;5.70;;;;;;;;;;6190723;23;20016;-87
2023/04/29 14:37:39;;;;;;;12.30;5.00;;;;;;;;;;6213552;23;20023;-88
2023/04/29 14:40:23;;;;;;;10.98;4.80;;;;;;;;;;6191082;23;20095;-87
2023/04/29 14:43:08;;;;;;;9.40;5.18;;;;;;;;;;6213051;23;20055;-90
2023/04/29 14:45:53;;;;;;;8.05;5.50;;;;;;;;;;6190739;23;20023;-90
2023/04/29 14:48:38;;;;;;;8.70;5.15;;;;;;;;;;6191024;23;20020;-89
2023/04/29 14:51:22;;;;;;;8.43;5.32;;;;;;;;;;6213661;23;20088;-95
2023/04/29 14:54:08;;;;;;;12.35;5.63;;;;;;;;;;6190422;23;20059;-88
2023/04/29 14:56:53;;;;;;;7.45;4.97;;;;;;;;;;6190287;23;20024;-88
2023/04/29 14:59:37;;;;;;;9.90;4.63;;;;;;;;;;6191145;23;20379;-88
2023/04/29 15:02:22;;;;;;;11.57;5.05;;;;;;;;;;6190786;23;20354;-90
2023/04/29 15:05:07;;;;;;;7.47;4.35;;;;;;;;;;6169501;23;20237;-89
2023/04/29 15:07:51;;;;;;;6.50;4.32;;;;;;;;;;6190193;23;20015;-88
2023/04/29 15:10:35;;;;;;;12.43;4.95;;;;;;;;;;6191031;23;20020;-87
2023/04/29 15:13:20;;;;;;;7.45;4.95;;;;;;;;;;6190996;23;20066;-87
2023/04/29 15:16:06;;;;;;;7.82;4.55;;;;;;;;;;6190398;23;20070;-86
2023/04/29 15:18:51;;;;;;;9.52;4.10;;;;;;;;;;6212913;23;20066;-85
2023/04/29 15:21:35;;;;;;;9.63;4.45;;;;;;;;;;6190628;23;20531;-87
2023/04/29 15:24:20;;;;;;;12.55;4.35;;;;;;;;;;6191079;23;20062;-86
2023/04/29 15:27:05;;;;;;;7.63;3.35;;;;;;;;;;6212952;23;20024;-86
2023/04/29 15:29:52;;;;;;;4.95;2.92;;;;;;;;;;6214115;23;20016;-90
2023/04/29 15:32:37;;;;;;;8.40;3.35;;;;;;;;;;6191392;23;20059;-89
2023/04/29 15:35:22;;;;;;;5.38;2.90;;;;;;;;;;6212503;23;20011;-88
2023/04/29 15:38:07;;;;;;;7.20;2.90;;;;;;;;;;6190038;23;20011;-89
2023/04/29 15:40:55;;;;;;;5.07;2.53;;;;;;;;;;6190349;23;20020;-89
2023/04/29 15:43:40;;;;;;;9.05;3.15;;;;;;;;;;6214055;23;20024;-88
2023/04/29 15:46:26;;;;;;;7.05;3.80;;;;;;;;;;6192555;23;20043;-87
2023/04/29 15:49:11;;;;;;;7.22;3.65;;;;;;;;;;6171992;23;20038;-87
2023/04/29 15:51:55;;;;;;;8.23;3.55;;;;;;;;;;6192164;23;20019;-86
2023/04/29 15:54:40;;;;;;;6.75;3.75;;;;;;;;;;6215626;23;20015;-88
2023/04/29 15:57:24;;;;;;;6.28;3.20;;;;;;;;;;6193112;23;20078;-89
2023/04/29 16:00:10;;;;;;;5.63;2.92;;;;;;;;;;6192020;23;20058;-87
2023/04/29 16:02:54;;;;;;;9.55;3.90;;;;;;;;;;6191997;23;20075;-89
2023/04/29 16:05:39;;;;;;;8.75;3.90;;;;;;;;;;6192522;23;20047;-88
2023/04/29 16:08:24;;;;;;;6.25;3.53;;;;;;;;;;6171899;23;20344;-87
2023/04/29 16:11:09;;;;;;;7.20;3.90;;;;;;;;;;6191810;23;20023;-87
2023/04/29 16:13:53;;;;;;;6.68;4.00;;;;;;;;;;6192190;23;20039;-87
2023/04/29 16:16:38;;;;;;;9.70;4.22;;;;;;;;;;6192650;23;20063;-87